createdAt,value
2022-08-29T00:00:08.666Z,25.50
2022-08-29T00:02:52.479Z,25.51
2022-08-29T00:05:24.386Z,25.64
2022-08-29T00:07:55.793Z,25.71
2022-08-29T00:10:25.709Z,25.60
2022-08-29T00:12:54.228Z,25.71
2022-08-29T00:15:26.140Z,25.74
2022-08-29T00:17:54.783Z,25.55
2022-08-29T00:20:33.991Z,25.53
2022-08-29T00:23:06.507Z,25.68
2022-08-29T00:25:33.987Z,25.67
2022-08-29T00:28:06.845Z,25.79
2022-08-29T00:30:35.473Z,25.66
2022-08-29T00:33:06.594Z,25.78
2022-08-29T00:35:40.600Z,25.84
2022-08-29T00:38:11.314Z,25.60
2022-08-29T00:40:43.191Z,25.51
2022-08-29T00:43:25.165Z,25.66
2022-08-29T00:46:11.518Z,25.57
2022-08-29T00:48:39.997Z,25.74
2022-08-29T00:51:13.029Z,25.70
2022-08-29T00:53:42.565Z,25.60
2022-08-29T00:56:10.295Z,25.72
2022-08-29T00:58:41.830Z,25.82
2022-08-29T01:01:12.512Z,25.56
2022-08-29T01:03:41.023Z,24.80
2022-08-29T01:06:16.250Z,25.09
2022-08-29T01:08:44.855Z,25.20
2022-08-29T01:11:31.760Z,25.16
2022-08-29T01:14:02.299Z,25.28
2022-08-29T01:16:30.209Z,25.38
2022-08-29T01:19:00.888Z,25.29
2022-08-29T01:21:38.907Z,25.33
2022-08-29T01:24:16.520Z,24.85
2022-08-29T01:26:48.439Z,24.67
2022-08-29T01:29:18.992Z,24.38
2022-08-29T01:31:57.239Z,24.65
2022-08-29T01:34:26.936Z,24.95
2022-08-29T01:36:59.977Z,25.17
2022-08-29T01:39:29.636Z,25.29
2022-08-29T01:42:01.125Z,25.20
2022-08-29T01:44:31.788Z,25.08
2022-08-29T01:47:03.644Z,24.93
2022-08-29T01:49:38.734Z,24.88
2022-08-29T01:52:12.936Z,25.06
2022-08-29T01:54:42.150Z,25.16
2022-08-29T01:57:13.248Z,25.22
2022-08-29T01:59:41.984Z,25.15
2022-08-29T02:02:11.444Z,25.10
2022-08-29T02:04:45.603Z,25.00
2022-08-29T02:07:14.288Z,24.63
2022-08-29T02:09:45.534Z,24.75
2022-08-29T02:12:14.601Z,25.01
2022-08-29T02:14:47.130Z,25.17
2022-08-29T02:17:16.940Z,25.32
2022-08-29T02:19:47.755Z,25.38
2022-08-29T02:22:15.972Z,25.35
2022-08-29T02:24:46.567Z,24.52
2022-08-29T02:27:17.549Z,24.61
2022-08-29T02:29:47.004Z,24.90
2022-08-29T02:32:17.334Z,24.92
2022-08-29T02:34:48.577Z,25.05
2022-08-29T02:37:19.779Z,25.15
2022-08-29T02:39:51.915Z,25.19
2022-08-29T02:42:20.063Z,25.12
2022-08-29T02:44:50.002Z,25.22
2022-08-29T02:47:18.986Z,24.64
2022-08-29T02:49:49.337Z,23.97
2022-08-29T02:52:17.774Z,24.22
2022-08-29T02:54:45.358Z,24.50
2022-08-29T02:57:15.826Z,24.73
2022-08-29T02:59:46.745Z,24.93
2022-08-29T03:02:17.409Z,24.97
2022-08-29T03:04:46.440Z,24.96
2022-08-29T03:07:17.069Z,24.96
2022-08-29T03:09:44.964Z,24.92
2022-08-29T03:12:15.740Z,24.95
2022-08-29T03:14:47.112Z,24.63
2022-08-29T03:17:14.848Z,24.63
2022-08-29T03:19:42.874Z,24.68
2022-08-29T03:22:10.763Z,24.77
2022-08-29T03:24:39.466Z,24.79
2022-08-29T03:27:10.922Z,24.40
2022-08-29T03:29:38.638Z,24.30
2022-08-29T03:32:08.902Z,24.51
2022-08-29T03:34:39.977Z,24.61
2022-08-29T03:37:09.985Z,24.43
2022-08-29T03:39:40.678Z,24.28
2022-08-29T03:42:09.262Z,24.04
2022-08-29T03:44:37.437Z,24.10
2022-08-29T03:47:06.003Z,24.14
2022-08-29T03:49:37.234Z,24.32
2022-08-29T03:52:10.908Z,24.40
2022-08-29T03:54:41.349Z,24.34
2022-08-29T03:57:35.254Z,24.31
2022-08-29T04:00:13.954Z,24.35
2022-08-29T04:02:41.768Z,24.02
2022-08-29T04:05:11.076Z,24.15
2022-08-29T04:08:01.702Z,24.40
2022-08-29T04:10:52.730Z,24.14
2022-08-29T04:13:20.155Z,24.33
2022-08-29T04:15:47.960Z,24.51
2022-08-29T04:18:21.324Z,24.31
2022-08-29T04:20:52.590Z,23.42
2022-08-29T04:23:21.214Z,23.41
2022-08-29T04:26:02.885Z,23.62
2022-08-29T04:28:43.551Z,23.73
2022-08-29T04:31:20.432Z,23.48
2022-08-29T04:33:51.129Z,23.60
2022-08-29T04:36:19.090Z,23.85
2022-08-29T04:38:49.198Z,24.13
2022-08-29T04:41:16.781Z,24.09
2022-08-29T04:43:47.662Z,24.13
2022-08-29T04:46:23.977Z,24.29
2022-08-29T04:48:53.243Z,24.32
2022-08-29T04:51:21.156Z,24.32
2022-08-29T04:53:50.338Z,24.45
2022-08-29T04:56:18.689Z,24.39
2022-08-29T04:58:47.486Z,24.44
2022-08-29T05:01:16.851Z,24.49
2022-08-29T05:03:46.594Z,24.39
2022-08-29T05:06:15.912Z,24.41
2022-08-29T05:08:48.267Z,24.43
2022-08-29T05:11:26.434Z,24.00
2022-08-29T05:14:00.108Z,23.76
2022-08-29T05:16:32.052Z,24.11
2022-08-29T05:19:05.912Z,24.39
2022-08-29T05:21:36.593Z,24.39
2022-08-29T05:24:08.050Z,24.10
2022-08-29T05:26:38.181Z,24.14
2022-08-29T05:29:08.399Z,24.21
2022-08-29T05:31:38.494Z,24.37
2022-08-29T05:34:14.054Z,24.51
2022-08-29T05:37:02.460Z,24.58
2022-08-29T05:39:30.308Z,24.37
2022-08-29T05:42:01.226Z,23.90
2022-08-29T05:44:34.317Z,24.08
2022-08-29T05:47:06.513Z,24.16
2022-08-29T05:49:36.008Z,24.35
2022-08-29T05:52:10.612Z,24.14
2022-08-29T05:54:41.922Z,24.31
2022-08-29T05:57:19.416Z,24.09
2022-08-29T05:59:50.126Z,24.12
2022-08-29T06:02:18.263Z,23.96
2022-08-29T06:04:46.343Z,24.05
2022-08-29T06:07:21.900Z,24.10
2022-08-29T06:10:03.685Z,24.31
2022-08-29T06:12:35.081Z,24.26
2022-08-29T06:15:04.856Z,24.41
2022-08-29T06:17:35.664Z,24.22
2022-08-29T06:20:10.086Z,24.30
2022-08-29T06:22:41.247Z,24.13
2022-08-29T06:25:37.383Z,24.15
2022-08-29T06:28:05.633Z,24.31
2022-08-29T06:30:36.509Z,24.51
2022-08-29T06:33:10.285Z,24.60
2022-08-29T06:35:40.771Z,24.53
2022-08-29T06:38:13.317Z,24.50
2022-08-29T06:40:44.495Z,24.75
2022-08-29T06:43:17.856Z,24.75
2022-08-29T06:45:46.907Z,24.79
2022-08-29T06:48:18.400Z,24.87
2022-08-29T06:50:48.509Z,25.03
2022-08-29T06:53:29.832Z,25.17
2022-08-29T06:56:25.017Z,25.19
2022-08-29T06:58:54.151Z,25.21
2022-08-29T07:01:22.065Z,25.34
2022-08-29T07:03:49.960Z,25.40
2022-08-29T07:06:19.971Z,25.28
2022-08-29T07:08:55.429Z,25.45
2022-08-29T07:11:28.227Z,25.37
2022-08-29T07:13:56.412Z,25.61
2022-08-29T07:16:23.988Z,25.73
2022-08-29T07:19:02.334Z,25.89
2022-08-29T07:21:30.303Z,25.97
2022-08-29T07:24:00.685Z,25.92
2022-08-29T07:26:29.693Z,26.02
2022-08-29T07:28:59.303Z,26.29
2022-08-29T07:31:30.984Z,26.23
2022-08-29T07:34:02.225Z,26.06
2022-08-29T07:36:34.637Z,26.18
2022-08-29T07:39:04.330Z,26.00
2022-08-29T07:41:32.390Z,26.12
2022-08-29T07:44:00.166Z,26.25
2022-08-29T07:46:27.643Z,26.59
2022-08-29T07:48:58.395Z,26.61
2022-08-29T07:51:26.799Z,26.47
2022-08-29T07:53:54.680Z,26.67
2022-08-29T07:56:25.737Z,26.79
2022-08-29T07:58:55.803Z,26.93
2022-08-29T08:01:23.584Z,26.74
2022-08-29T08:03:51.533Z,27.00
2022-08-29T08:06:19.812Z,27.05
2022-08-29T08:08:47.396Z,27.12
2022-08-29T08:11:15.110Z,27.32
2022-08-29T08:13:42.793Z,27.47
2022-08-29T08:16:11.521Z,27.64
2022-08-29T08:18:44.223Z,27.75
2022-08-29T08:21:11.896Z,28.10
2022-08-29T08:23:41.791Z,27.67
2022-08-29T08:26:11.969Z,28.02
2022-08-29T08:28:45.207Z,27.49
2022-08-29T08:31:15.171Z,27.81
2022-08-29T08:33:42.897Z,27.25
2022-08-29T08:36:16.361Z,27.57
2022-08-29T08:38:43.875Z,27.43
2022-08-29T08:41:30.159Z,27.56
2022-08-29T08:43:58.852Z,27.84
2022-08-29T08:46:43.151Z,27.84
2022-08-29T08:49:23.361Z,27.62
2022-08-29T08:51:53.829Z,27.79
2022-08-29T08:54:26.131Z,27.34
2022-08-29T08:57:10.376Z,27.08
2022-08-29T08:59:45.496Z,27.15
2022-08-29T09:02:31.512Z,27.37
2022-08-29T09:05:18.639Z,27.47
2022-08-29T09:08:01.757Z,28.02
2022-08-29T09:11:16.613Z,28.24
2022-08-29T09:13:56.745Z,28.36
2022-08-29T09:16:29.332Z,27.78
2022-08-29T09:18:59.686Z,28.19
2022-08-29T09:21:42.884Z,28.09
2022-08-29T09:24:11.860Z,28.29
2022-08-29T09:26:44.773Z,28.33
2022-08-29T09:29:14.007Z,28.35
2022-08-29T09:31:44.859Z,28.66
2022-08-29T09:34:13.315Z,28.39
2022-08-29T09:36:45.905Z,28.38
2022-08-29T09:39:18.510Z,28.45
2022-08-29T09:41:51.753Z,28.34
2022-08-29T09:44:29.183Z,28.47
2022-08-29T09:47:04.302Z,28.51
2022-08-29T09:50:02.425Z,28.70
2022-08-29T09:52:30.069Z,28.65
2022-08-29T09:54:57.892Z,28.40
2022-08-29T09:57:26.795Z,28.67
2022-08-29T10:00:13.783Z,28.70
2022-08-29T10:02:48.493Z,28.14
2022-08-29T10:05:31.135Z,28.15
2022-08-29T10:08:05.118Z,28.22
2022-08-29T10:10:38.017Z,28.38
2022-08-29T10:13:20.408Z,28.67
2022-08-29T10:15:54.094Z,28.29
2022-08-29T10:19:01.873Z,28.56
2022-08-29T10:21:34.875Z,28.76
2022-08-29T10:24:20.569Z,28.72
2022-08-29T10:26:57.274Z,28.61
2022-08-29T10:29:31.750Z,28.68
2022-08-29T10:32:27.032Z,29.13
2022-08-29T10:35:13.862Z,29.26
2022-08-29T10:38:00.234Z,29.41
2022-08-29T10:40:32.785Z,29.28
2022-08-29T10:43:08.185Z,29.67
2022-08-29T10:45:45.154Z,30.04
2022-08-29T10:48:27.449Z,29.99
2022-08-29T10:51:24.532Z,30.26
2022-08-29T10:53:53.516Z,30.57
2022-08-29T10:56:47.248Z,30.67
2022-08-29T10:59:24.544Z,30.86
2022-08-29T11:01:57.824Z,30.97
2022-08-29T11:04:30.397Z,30.57
2022-08-29T11:07:21.179Z,30.72
2022-08-29T11:10:02.543Z,30.77
2022-08-29T11:12:59.972Z,30.14
2022-08-29T11:15:29.152Z,30.50
2022-08-29T11:18:06.218Z,29.63
2022-08-29T11:20:35.959Z,29.19
2022-08-29T11:23:13.778Z,29.19
2022-08-29T11:25:42.091Z,28.87
2022-08-29T11:28:10.301Z,29.85
2022-08-29T11:30:48.219Z,30.56
2022-08-29T11:33:28.350Z,31.10
2022-08-29T11:35:55.961Z,33.22
2022-08-29T11:38:44.338Z,34.02
2022-08-29T11:41:30.829Z,34.25
2022-08-29T11:44:04.679Z,36.00
2022-08-29T11:46:35.405Z,36.39
2022-08-29T11:49:21.663Z,37.26
2022-08-29T11:52:22.303Z,36.11
2022-08-29T11:54:54.842Z,37.82
2022-08-29T11:57:34.285Z,38.11
2022-08-29T12:00:05.309Z,38.25
2022-08-29T12:02:36.858Z,38.07
2022-08-29T12:05:07.951Z,39.03
2022-08-29T12:07:36.807Z,39.34
2022-08-29T12:10:24.755Z,37.68
2022-08-29T12:12:53.765Z,37.57
2022-08-29T12:15:27.351Z,37.12
2022-08-29T12:18:04.476Z,37.82
2022-08-29T12:20:41.699Z,39.06
2022-08-29T12:23:15.673Z,39.41
2022-08-29T12:26:09.667Z,37.68
2022-08-29T12:28:49.317Z,38.38
2022-08-29T12:31:35.625Z,38.70
2022-08-29T12:34:23.475Z,39.70
2022-08-29T12:36:56.969Z,37.83
2022-08-29T12:39:39.812Z,38.41
2022-08-29T12:42:25.322Z,38.44
2022-08-29T12:45:00.703Z,38.31
2022-08-29T12:47:34.103Z,39.38
2022-08-29T12:50:10.192Z,39.39
2022-08-29T12:52:40.016Z,39.37
2022-08-29T12:55:26.807Z,39.91
2022-08-29T12:58:02.165Z,38.89
2022-08-29T13:00:33.691Z,38.83
2022-08-29T13:03:04.561Z,38.44
2022-08-29T13:05:38.639Z,40.05
2022-08-29T13:08:11.025Z,39.75
2022-08-29T13:10:57.558Z,39.37
2022-08-29T13:13:25.449Z,39.60
2022-08-29T13:15:53.876Z,38.46
2022-08-29T13:18:24.748Z,38.23
2022-08-29T13:21:10.644Z,38.28
2022-08-29T13:23:48.230Z,38.04
2022-08-29T13:26:20.258Z,38.37
2022-08-29T13:28:51.326Z,39.20
2022-08-29T13:31:19.106Z,38.49
2022-08-29T13:33:49.023Z,37.60
2022-08-29T13:36:35.295Z,37.87
2022-08-29T13:39:17.721Z,38.30
2022-08-29T13:41:50.993Z,38.94
2022-08-29T13:44:20.725Z,38.19
2022-08-29T13:46:48.549Z,36.68
2022-08-29T13:49:23.996Z,35.19
2022-08-29T13:51:51.570Z,34.89
2022-08-29T13:54:21.694Z,34.05
2022-08-29T13:56:56.743Z,34.17
2022-08-29T14:02:10.673Z,32.53
2022-08-29T14:04:48.525Z,32.79
2022-08-29T14:07:18.106Z,32.35
2022-08-29T14:09:50.045Z,31.58
2022-08-29T14:12:18.641Z,31.44
2022-08-29T14:14:47.505Z,31.51
2022-08-29T14:17:26.608Z,31.39
2022-08-29T14:19:59.511Z,31.05
2022-08-29T14:22:28.131Z,31.05
2022-08-29T14:33:43.557Z,30.64
2022-08-29T14:36:19.006Z,30.60
2022-08-29T14:38:52.343Z,30.88
2022-08-29T14:41:23.039Z,30.86
2022-08-29T14:43:54.947Z,30.82
2022-08-29T14:46:27.770Z,30.75
2022-08-29T14:48:55.929Z,30.74
2022-08-29T14:51:31.261Z,30.67
2022-08-29T14:54:01.203Z,30.63
2022-08-29T14:56:47.642Z,30.67
2022-08-29T14:59:21.955Z,30.62
2022-08-29T15:01:57.225Z,30.32
2022-08-29T15:04:36.737Z,30.37
2022-08-29T15:07:15.424Z,30.38
2022-08-29T15:09:48.971Z,30.21
2022-08-29T15:12:22.843Z,30.39
2022-08-29T15:14:56.872Z,30.27
2022-08-29T15:17:30.945Z,30.23
2022-08-29T15:23:04.821Z,30.28
2022-08-29T15:25:35.665Z,30.30
2022-08-29T15:28:13.122Z,30.30
2022-08-29T15:30:43.503Z,30.18
2022-08-29T15:33:18.148Z,30.28
2022-08-29T15:35:52.109Z,30.33
2022-08-29T15:38:26.493Z,30.40
2022-08-29T15:41:03.154Z,30.24
2022-08-29T15:43:39.996Z,30.23
2022-08-29T15:46:23.245Z,30.23
2022-08-29T15:49:01.123Z,30.31
2022-08-29T15:51:37.483Z,30.26
2022-08-29T15:54:11.396Z,30.18
2022-08-29T15:56:47.899Z,30.14
2022-08-29T15:59:41.463Z,29.98
2022-08-29T16:02:28.217Z,30.09
2022-08-29T16:05:05.073Z,30.04
2022-08-29T16:07:38.300Z,29.93
2022-08-29T16:10:13.118Z,29.91
2022-08-29T16:12:50.427Z,29.98
2022-08-29T16:15:27.965Z,29.90
2022-08-29T16:18:02.542Z,29.97
2022-08-29T16:20:38.042Z,29.99
2022-08-29T16:23:07.165Z,29.95
2022-08-29T16:25:41.411Z,29.92
2022-08-29T16:28:15.326Z,29.92
2022-08-29T16:30:45.862Z,29.87
2022-08-29T16:33:19.807Z,29.96
2022-08-29T16:35:55.935Z,29.88
2022-08-29T16:38:32.264Z,29.91
2022-08-29T16:41:10.446Z,29.83
2022-08-29T16:43:42.407Z,29.78
2022-08-29T16:46:21.974Z,29.80
2022-08-29T16:48:55.582Z,29.80
2022-08-29T16:51:32.022Z,29.79
2022-08-29T16:54:05.459Z,29.85
2022-08-29T16:56:35.150Z,29.82
2022-08-29T16:59:04.857Z,29.72
2022-08-29T17:01:37.904Z,29.72
2022-08-29T17:04:10.868Z,29.71
2022-08-29T17:06:48.190Z,29.71
2022-08-29T17:09:17.235Z,29.67
2022-08-29T17:11:48.327Z,29.54
2022-08-29T17:14:20.339Z,29.48
2022-08-29T17:16:53.958Z,29.45
2022-08-29T17:19:22.338Z,29.36
2022-08-29T17:21:53.840Z,29.42
2022-08-29T17:24:23.844Z,29.31
2022-08-29T17:26:59.380Z,29.26
2022-08-29T17:29:34.353Z,29.32
2022-08-29T17:32:06.481Z,29.27
2022-08-29T17:34:34.225Z,29.29
2022-08-29T17:37:04.388Z,29.20
2022-08-29T17:39:39.769Z,29.20
2022-08-29T17:42:12.218Z,29.24
2022-08-29T17:44:44.539Z,29.25
2022-08-29T17:47:17.188Z,29.19
2022-08-29T17:49:50.611Z,29.13
2022-08-29T17:52:21.640Z,29.17
2022-08-29T17:54:55.044Z,29.04
2022-08-29T17:57:26.222Z,29.00
2022-08-29T17:59:56.950Z,28.87
2022-08-29T18:02:32.110Z,28.85
2022-08-29T18:05:17.997Z,28.91
2022-08-29T18:07:52.400Z,28.93
2022-08-29T18:10:25.879Z,28.97
2022-08-29T18:12:57.188Z,28.99
2022-08-29T18:15:35.530Z,28.96
2022-08-29T18:18:06.235Z,28.90
2022-08-29T18:20:38.238Z,28.79
2022-08-29T18:23:16.863Z,28.82
2022-08-29T18:25:48.061Z,28.80
2022-08-29T18:28:19.259Z,28.82
2022-08-29T18:30:53.027Z,28.85
2022-08-29T18:33:28.457Z,28.88
2022-08-29T18:36:10.587Z,28.85
2022-08-29T18:38:39.141Z,28.85
2022-08-29T18:41:09.140Z,28.85
2022-08-29T18:43:36.741Z,28.80
2022-08-29T18:46:09.637Z,28.67
2022-08-29T18:48:37.497Z,28.69
2022-08-29T18:51:10.936Z,28.71
2022-08-29T18:53:41.671Z,28.61
2022-08-29T18:56:17.124Z,28.68
2022-08-29T18:58:46.947Z,28.72
2022-08-29T19:01:27.839Z,28.72
2022-08-29T19:03:59.915Z,28.16
2022-08-29T19:06:27.534Z,28.11
2022-08-29T19:09:00.045Z,28.17
2022-08-29T19:11:30.103Z,28.26
2022-08-29T19:14:01.415Z,28.39
2022-08-29T19:16:30.172Z,28.35
2022-08-29T19:19:01.371Z,28.23
2022-08-29T19:21:31.294Z,28.20
2022-08-29T19:24:01.897Z,28.33
2022-08-29T19:26:35.960Z,28.37
2022-08-29T19:29:14.108Z,28.38
2022-08-29T19:31:42.221Z,28.48
2022-08-29T19:34:15.608Z,28.38
2022-08-29T19:36:48.711Z,28.41
2022-08-29T19:39:22.423Z,28.41
2022-08-29T19:41:56.292Z,28.25
2022-08-29T19:44:27.550Z,28.15
2022-08-29T19:46:58.527Z,28.03
2022-08-29T19:49:29.430Z,28.11
2022-08-29T19:51:59.776Z,28.02
2022-08-29T19:54:35.348Z,28.02
2022-08-29T19:57:05.891Z,28.03
2022-08-29T19:59:35.554Z,28.14
2022-08-29T20:02:08.788Z,28.16
2022-08-29T20:04:44.067Z,28.22
2022-08-29T20:07:17.174Z,28.14
2022-08-29T20:09:45.571Z,28.17
2022-08-29T20:12:18.349Z,28.21
2022-08-29T20:14:50.992Z,27.98
2022-08-29T20:17:23.949Z,27.90
2022-08-29T20:19:51.561Z,27.89
2022-08-29T20:22:20.640Z,27.89
2022-08-29T20:24:53.549Z,27.97
2022-08-29T20:27:24.253Z,28.04
2022-08-29T20:29:52.120Z,28.10
2022-08-29T20:32:19.876Z,27.98
2022-08-29T20:34:53.178Z,27.88
2022-08-29T20:37:25.948Z,27.86
2022-08-29T20:39:56.727Z,27.89
2022-08-29T20:42:30.851Z,27.86
2022-08-29T20:45:01.319Z,27.97
2022-08-29T20:47:31.646Z,28.05
2022-08-29T20:50:01.972Z,28.12
2022-08-29T20:52:34.763Z,27.68
2022-08-29T20:55:07.873Z,27.39
2022-08-29T20:57:41.412Z,27.08
2022-08-29T21:00:10.280Z,27.06
2022-08-29T21:03:01.652Z,27.14
2022-08-29T21:05:44.857Z,26.99
2022-08-29T21:08:16.805Z,26.99
2022-08-29T21:10:48.282Z,27.24
2022-08-29T21:13:20.571Z,27.15
2022-08-29T21:15:54.521Z,27.05
2022-08-29T21:18:27.244Z,27.16
2022-08-29T21:20:58.731Z,26.91
2022-08-29T21:23:29.375Z,27.04
2022-08-29T21:26:03.673Z,26.86
2022-08-29T21:28:33.487Z,26.87
2022-08-29T21:31:08.168Z,27.00
2022-08-29T21:33:42.689Z,26.91
2022-08-29T21:36:18.700Z,26.92
2022-08-29T21:38:51.558Z,26.89
2022-08-29T21:41:22.243Z,27.04
2022-08-29T21:43:53.100Z,26.91
2022-08-29T21:46:25.762Z,26.82
2022-08-29T21:48:56.505Z,26.95
2022-08-29T21:51:27.843Z,26.99
2022-08-29T21:53:58.778Z,27.02
2022-08-29T21:56:30.894Z,27.00
2022-08-29T21:58:59.047Z,26.96
2022-08-29T22:01:33.545Z,26.82
2022-08-29T22:04:01.848Z,26.96
2022-08-29T22:06:35.723Z,26.98
2022-08-29T22:09:03.787Z,27.08
2022-08-29T22:11:37.339Z,27.15
2022-08-29T22:14:06.747Z,26.80
2022-08-29T22:16:37.532Z,26.88
2022-08-29T22:19:09.070Z,26.72
2022-08-29T22:21:47.031Z,26.91
2022-08-29T22:24:17.680Z,27.04
2022-08-29T22:26:45.358Z,27.02
2022-08-29T22:29:16.197Z,26.89
2022-08-29T22:31:49.852Z,26.77
2022-08-29T22:34:26.238Z,26.75
2022-08-29T22:36:59.219Z,26.70
2022-08-29T22:39:29.887Z,26.76
2022-08-29T22:42:00.620Z,26.61
2022-08-29T22:47:27.346Z,26.51
2022-08-29T22:50:01.110Z,26.46
2022-08-29T22:52:29.116Z,26.48
2022-08-29T22:54:59.433Z,26.60
2022-08-29T22:57:29.416Z,26.54
2022-08-29T23:00:00.048Z,26.69
2022-08-29T23:02:29.315Z,26.72
2022-08-29T23:05:00.231Z,26.73
2022-08-29T23:07:33.803Z,26.81
2022-08-29T23:10:03.557Z,26.65
2022-08-29T23:12:36.774Z,26.93
2022-08-29T23:15:11.388Z,26.60
2022-08-29T23:17:39.596Z,26.55
2022-08-29T23:20:12.830Z,26.41
2022-08-29T23:22:43.336Z,26.48
2022-08-29T23:25:14.800Z,26.36
2022-08-29T23:27:45.195Z,26.50
2022-08-29T23:30:20.844Z,26.40
2022-08-29T23:32:51.427Z,26.38
2022-08-29T23:35:21.783Z,26.58
2022-08-29T23:37:54.908Z,26.62
2022-08-29T23:40:22.866Z,26.76
2022-08-29T23:42:51.646Z,26.73
2022-08-29T23:45:24.916Z,26.56
2022-08-29T23:47:52.611Z,26.68
2022-08-29T23:50:23.533Z,26.43
2022-08-29T23:52:51.074Z,26.46
2022-08-29T23:55:21.381Z,26.65
2022-08-29T23:57:51.755Z,26.84
